Time;durP1;ratioP1;P1;durP2;ratioP2;P2;SDS_P1;SDS_P2;PMS_P1;PMS_P2;Temp;Humidity;BMP_temperature;BMP_pressure;BME280_temperature;BME280_humidity;BME280_pressure;Samples;Min_cycle;Max_cycle;Signal;HPM_P1;HPM_P2
2022/07/26 00:00:07;;;;;;;2.93;2.40;;;23.50;57.40;;;;;;5017851;28;20443;-51
2022/07/26 00:02:33;;;;;;;2.90;2.60;;;23.60;57.60;;;;;;5016841;28;20290;-50
2022/07/26 00:04:58;;;;;;;2.70;2.50;;;23.50;57.50;;;;;;5020734;28;20835;-49
2022/07/26 00:07:24;;;;;;;3.57;2.17;;;23.40;57.50;;;;;;5016453;28;20488;-49
2022/07/26 00:09:49;;;;;;;3.57;2.20;;;23.20;58.40;;;;;;5017336;28;20217;-54
2022/07/26 00:12:15;;;;;;;3.00;1.83;;;23.00;59.10;;;;;;5018009;28;20203;-49
2022/07/26 00:14:41;;;;;;;4.00;2.33;;;22.80;59.60;;;;;;5018528;28;20595;-53
2022/07/26 00:17:07;;;;;;;2.83;1.83;;;22.60;60.30;;;;;;5028625;28;20262;-49
2022/07/26 00:19:32;;;;;;;2.43;1.70;;;22.50;61.30;;;;;;5018681;28;20243;-50
2022/07/26 00:24:42;;;;;;;3.00;1.80;;;22.50;62.20;;;;;;5029832;28;20285;-49
2022/07/26 00:27:08;;;;;;;3.73;2.07;;;22.20;63.30;;;;;;5021105;28;20484;-52
2022/07/26 00:29:33;;;;;;;2.37;1.70;;;22.10;64.40;;;;;;5036715;28;20459;-48
2022/07/26 00:31:59;;;;;;;3.30;1.90;;;22.10;65.20;;;;;;5037011;28;20946;-48
2022/07/26 00:34:25;;;;;;;1.93;1.73;;;22.00;66.10;;;;;;5036864;28;20338;-47
2022/07/26 00:36:50;;;;;;;7.20;1.90;;;22.00;67.20;;;;;;5022184;28;20595;-50
2022/07/26 00:39:16;;;;;;;5.70;1.80;;;21.90;68.10;;;;;;5037031;28;20267;-53
2022/07/26 00:41:41;;;;;;;4.40;2.13;;;21.90;68.70;;;;;;5037554;28;20254;-52
2022/07/26 00:44:07;;;;;;;3.20;2.23;;;22.00;69.60;;;;;;5027260;28;20184;-49
2022/07/26 00:46:33;;;;;;;3.10;1.60;;;22.00;70.20;;;;;;5035178;28;20223;-52
2022/07/26 00:48:58;;;;;;;3.53;2.10;;;21.90;71.30;;;;;;5037612;28;20231;-49
2022/07/26 00:51:24;;;;;;;1.90;1.77;;;21.90;72.10;;;;;;5040869;28;20458;-52
2022/07/26 00:53:49;;;;;;;2.27;1.73;;;21.90;73.00;;;;;;5023795;28;20201;-53
2022/07/26 00:56:15;;;;;;;4.87;1.63;;;22.00;73.60;;;;;;5028546;28;20189;-50
2022/07/26 00:58:42;;;;;;;2.37;2.00;;;22.00;74.30;;;;;;5035077;28;20193;-50
2022/07/26 01:01:08;;;;;;;2.07;1.63;;;22.00;74.70;;;;;;5038881;28;20419;-52
2022/07/26 01:03:34;;;;;;;2.70;1.97;;;22.00;75.00;;;;;;5039550;28;20505;-48
2022/07/26 01:06:00;;;;;;;2.20;1.60;;;22.00;75.20;;;;;;5038682;28;20443;-54
2022/07/26 01:08:25;;;;;;;1.97;1.70;;;22.00;75.70;;;;;;5038839;28;20230;-51
2022/07/26 01:10:52;;;;;;;2.60;1.83;;;22.00;76.60;;;;;;5040231;28;20439;-52
2022/07/26 01:13:21;;;;;;;3.90;1.60;;;22.00;77.20;;;;;;5039709;28;20260;-51
2022/07/26 01:15:47;;;;;;;2.77;1.40;;;22.00;78.00;;;;;;5036331;28;20429;-51
2022/07/26 01:18:13;;;;;;;5.43;2.87;;;22.00;78.30;;;;;;5021198;28;20453;-50
2022/07/26 01:20:39;;;;;;;2.70;1.70;;;21.90;79.00;;;;;;5034239;28;20186;-50
2022/07/26 01:23:06;;;;;;;2.70;1.73;;;21.90;79.40;;;;;;5038791;28;20445;-53
2022/07/26 01:25:34;;;;;;;1.40;1.30;;;21.90;79.60;;;;;;5020704;28;20194;-51
2022/07/26 01:27:59;;;;;;;2.20;1.90;;;21.90;80.10;;;;;;5020268;28;20484;-52
2022/07/26 01:30:25;;;;;;;5.00;1.97;;;21.90;81.20;;;;;;5019657;28;20432;-49
2022/07/26 01:32:51;;;;;;;1.57;1.47;;;21.90;81.80;;;;;;5019665;28;20316;-52
2022/07/26 01:35:16;;;;;;;2.00;1.80;;;21.90;82.70;;;;;;5019924;28;20182;-51
2022/07/26 01:37:42;;;;;;;2.00;1.70;;;22.00;83.10;;;;;;5019997;28;20201;-50
2022/07/26 01:40:09;;;;;;;3.07;1.43;;;22.10;83.50;;;;;;5019494;28;20181;-54
2022/07/26 01:42:34;;;;;;;2.43;1.80;;;22.10;85.00;;;;;;5019414;28;20221;-53
2022/07/26 01:45:00;;;;;;;2.20;1.60;;;22.00;85.00;;;;;;5019877;28;20459;-49
2022/07/26 01:47:26;;;;;;;1.83;1.57;;;21.90;85.40;;;;;;5019828;28;20286;-50
2022/07/26 01:49:52;;;;;;;2.23;1.83;;;21.90;86.00;;;;;;5020228;28;20418;-54
2022/07/26 01:52:17;;;;;;;5.27;2.77;;;21.90;85.90;;;;;;5019494;28;20557;-52
2022/07/26 01:54:43;;;;;;;2.67;1.27;;;21.90;85.70;;;;;;5019163;28;20180;-51
2022/07/26 01:57:09;;;;;;;2.13;1.60;;;22.00;85.50;;;;;;5018522;28;20191;-52
2022/07/26 01:59:34;;;;;;;3.20;1.67;;;22.00;85.60;;;;;;5019797;28;20413;-51
2022/07/26 02:02:00;;;;;;;2.07;1.63;;;22.00;85.60;;;;;;5019232;28;20472;-52
2022/07/26 02:07:10;;;;;;;2.07;1.43;;;22.00;86.00;;;;;;5038522;28;20534;-53
2022/07/26 02:09:36;;;;;;;3.30;1.80;;;22.10;85.90;;;;;;5033207;28;20426;-53
2022/07/26 02:12:03;;;;;;;2.47;1.70;;;22.00;86.00;;;;;;5035652;28;20447;-53
2022/07/26 02:14:28;;;;;;;4.37;1.70;;;22.00;86.30;;;;;;5037961;28;20249;-51
2022/07/26 02:16:58;;;;;;;2.27;1.60;;;22.00;86.00;;;;;;5027207;28;20714;-50
2022/07/26 02:19:25;;;;;;;2.13;1.90;;;21.90;86.50;;;;;;5019130;28;20187;-50
2022/07/26 02:21:51;;;;;;;2.00;1.80;;;21.80;87.00;;;;;;5030180;28;20446;-50
2022/07/26 02:24:16;;;;;;;3.03;1.90;;;21.80;87.30;;;;;;5019254;28;20834;-49
2022/07/26 02:26:42;;;;;;;4.17;1.70;;;21.80;87.60;;;;;;5028227;28;20240;-54
2022/07/26 02:29:07;;;;;;;2.73;1.70;;;21.70;88.00;;;;;;5038274;28;20551;-52
2022/07/26 02:31:33;;;;;;;2.13;1.63;;;21.50;88.70;;;;;;5038384;28;20239;-49
2022/07/26 02:33:59;;;;;;;2.17;1.97;;;21.50;89.10;;;;;;5038796;28;20183;-49
2022/07/26 02:36:24;;;;;;;4.90;1.70;;;21.40;89.40;;;;;;5038055;28;20511;-50
2022/07/26 02:38:50;;;;;;;1.73;1.63;;;21.40;90.00;;;;;;5037646;28;20195;-53
2022/07/26 02:41:16;;;;;;;1.70;1.60;;;21.30;90.20;;;;;;5037236;28;20573;-55
2022/07/26 02:43:41;;;;;;;2.20;1.77;;;21.30;90.40;;;;;;5037149;28;20184;-52
2022/07/26 02:46:07;;;;;;;2.10;1.67;;;21.20;90.60;;;;;;5037776;28;20189;-54
2022/07/26 02:48:32;;;;;;;3.80;1.93;;;21.20;90.90;;;;;;5036247;28;20538;-51
2022/07/26 02:50:58;;;;;;;4.73;1.90;;;21.10;91.00;;;;;;5036804;28;20181;-49
2022/07/26 02:53:24;;;;;;;2.43;1.60;;;21.10;91.20;;;;;;5036623;28;20187;-54
2022/07/26 02:55:50;;;;;;;2.20;1.90;;;21.10;91.20;;;;;;5038282;28;20185;-49
2022/07/26 02:58:15;;;;;;;2.30;1.80;;;21.10;91.40;;;;;;5037722;28;20217;-52
2022/07/26 03:00:41;;;;;;;1.87;1.53;;;21.10;91.60;;;;;;5037839;28;20447;-48
2022/07/26 03:03:07;;;;;;;2.37;1.60;;;21.00;91.60;;;;;;5037963;28;20186;-52
2022/07/26 03:05:33;;;;;;;2.43;1.80;;;21.00;91.90;;;;;;5038031;28;20820;-51
2022/07/26 03:07:58;;;;;;;1.93;1.57;;;21.10;92.00;;;;;;5036773;28;20235;-52
2022/07/26 03:10:24;;;;;;;1.90;1.50;;;21.20;91.80;;;;;;5037256;28;20175;-50
2022/07/26 03:12:49;;;;;;;2.73;1.90;;;21.10;91.80;;;;;;5037510;28;20197;-50
2022/07/26 03:15:15;;;;;;;2.10;1.90;;;21.10;92.10;;;;;;5036598;28;20285;-50
2022/07/26 03:17:41;;;;;;;2.10;1.90;;;21.10;92.30;;;;;;5034418;28;20559;-50
2022/07/26 03:20:07;;;;;;;1.93;1.73;;;20.90;92.50;;;;;;5033880;28;20219;-51
2022/07/26 03:22:32;;;;;;;2.27;1.90;;;20.90;92.60;;;;;;5034721;28;20491;-49
2022/07/26 03:24:58;;;;;;;2.40;2.20;;;20.80;92.70;;;;;;5034762;28;20520;-51
2022/07/26 03:27:24;;;;;;;2.47;1.83;;;20.90;92.80;;;;;;5034513;28;20585;-47
2022/07/26 03:29:49;;;;;;;3.60;2.30;;;21.00;92.70;;;;;;5035437;28;20267;-49
2022/07/26 03:32:15;;;;;;;2.83;2.13;;;20.90;92.70;;;;;;5037274;28;20313;-49
2022/07/26 03:34:40;;;;;;;2.50;2.00;;;20.90;92.70;;;;;;5037467;28;20182;-50
2022/07/26 03:37:06;;;;;;;2.40;2.07;;;20.80;92.90;;;;;;5037955;28;20253;-50
2022/07/26 03:39:32;;;;;;;2.10;1.90;;;20.80;92.90;;;;;;5035818;28;20331;-50
2022/07/26 03:41:57;;;;;;;3.50;1.93;;;20.80;93.00;;;;;;5034883;28;20569;-51
2022/07/26 03:44:23;;;;;;;2.77;2.23;;;20.70;93.00;;;;;;5034945;28;20192;-49
2022/07/26 03:46:48;;;;;;;3.03;2.00;;;20.80;93.00;;;;;;5032931;28;20706;-52
2022/07/26 03:49:14;;;;;;;3.77;2.13;;;20.80;93.00;;;;;;5033510;28;20188;-51
2022/07/26 03:51:40;;;;;;;2.50;2.30;;;20.70;93.20;;;;;;5023021;28;20556;-52
2022/07/26 03:54:05;;;;;;;4.93;2.83;;;20.70;93.30;;;;;;5013276;28;20209;-51
2022/07/26 03:56:31;;;;;;;2.30;2.10;;;20.60;93.40;;;;;;5022436;28;20189;-50
2022/07/26 03:58:59;;;;;;;2.80;2.40;;;20.50;93.60;;;;;;5014698;28;20510;-51
2022/07/26 04:01:25;;;;;;;2.87;2.53;;;20.40;94.10;;;;;;5016319;28;20237;-48
2022/07/26 04:03:51;;;;;;;2.70;2.17;;;20.30;94.10;;;;;;5020464;28;20556;-53
2022/07/26 04:06:18;;;;;;;2.90;2.30;;;20.20;94.20;;;;;;5025193;28;20434;-51
2022/07/26 04:08:47;;;;;;;2.50;2.30;;;20.10;94.40;;;;;;5016867;28;20492;-52
2022/07/26 04:11:13;;;;;;;3.50;2.17;;;20.20;94.40;;;;;;5014965;28;20416;-50
2022/07/26 04:13:38;;;;;;;2.10;1.90;;;20.00;94.70;;;;;;5016694;28;20459;-53
2022/07/26 04:16:05;;;;;;;2.50;2.30;;;20.10;94.80;;;;;;5014736;28;20221;-49
2022/07/26 04:18:30;;;;;;;3.20;2.27;;;20.20;94.60;;;;;;5016690;28;20197;-50
2022/07/26 04:20:56;;;;;;;3.53;2.13;;;20.30;94.30;;;;;;5020920;28;20580;-53
2022/07/26 04:23:22;;;;;;;2.63;2.43;;;20.40;94.20;;;;;;5019986;28;20200;-48
2022/07/26 04:25:48;;;;;;;2.80;2.60;;;20.40;94.10;;;;;;5019930;28;20182;-51
2022/07/26 04:28:14;;;;;;;2.90;2.60;;;20.40;94.20;;;;;;5017942;28;20496;-49
2022/07/26 04:30:39;;;;;;;2.70;2.00;;;20.10;94.50;;;;;;5016820;28;20422;-52
2022/07/26 04:33:05;;;;;;;3.77;3.33;;;20.00;94.90;;;;;;5013636;28;20244;-51
2022/07/26 04:35:31;;;;;;;2.33;2.13;;;20.00;95.00;;;;;;5011903;28;20432;-52
2022/07/26 04:37:57;;;;;;;2.40;2.10;;;19.90;95.10;;;;;;5012260;28;20197;-52
2022/07/26 04:40:24;;;;;;;3.13;2.60;;;19.90;95.10;;;;;;5012268;28;20484;-52
2022/07/26 04:42:50;;;;;;;3.10;2.53;;;20.00;95.00;;;;;;5015458;28;20624;-56
2022/07/26 04:45:16;;;;;;;3.30;3.00;;;20.00;95.10;;;;;;5017529;28;20427;-54
2022/07/26 04:47:49;;;;;;;3.00;2.70;;;19.90;95.10;;;;;;5017729;28;20478;-52
2022/07/26 04:50:14;;;;;;;3.43;2.50;;;19.90;95.40;;;;;;5017884;28;20174;-53
2022/07/26 04:52:40;;;;;;;4.10;2.70;;;19.80;95.50;;;;;;5014763;28;20439;-52
2022/07/26 04:55:07;;;;;;;2.50;2.30;;;19.90;95.60;;;;;;5018282;28;20457;-52
2022/07/26 04:57:33;;;;;;;2.73;2.53;;;20.00;95.50;;;;;;5017386;28;20681;-52
2022/07/26 04:59:59;;;;;;;4.53;2.63;;;20.00;95.30;;;;;;5017822;28;20454;-52
2022/07/26 05:02:25;;;;;;;3.60;2.90;;;20.10;95.20;;;;;;5017984;28;20178;-54
2022/07/26 05:04:50;;;;;;;2.93;2.60;;;20.10;95.00;;;;;;5018136;28;20481;-52
2022/07/26 05:07:16;;;;;;;3.00;2.80;;;20.10;95.00;;;;;;5016476;28;20597;-53
2022/07/26 05:09:42;;;;;;;2.80;2.60;;;20.00;95.20;;;;;;5012282;28;20194;-52
2022/07/26 05:12:08;;;;;;;3.63;2.90;;;20.00;95.10;;;;;;5011239;28;20173;-55
2022/07/26 05:14:36;;;;;;;3.50;3.20;;;19.80;95.60;;;;;;5012616;28;20248;-51
2022/07/26 05:17:02;;;;;;;4.27;3.30;;;20.00;95.30;;;;;;5012766;28;20428;-52
2022/07/26 05:19:28;;;;;;;3.90;2.77;;;20.10;95.30;;;;;;5012499;28;20428;-53
2022/07/26 05:21:53;;;;;;;4.13;2.70;;;20.20;95.00;;;;;;5012983;28;20893;-50
2022/07/26 05:24:19;;;;;;;3.20;2.90;;;20.20;95.00;;;;;;5013025;28;20196;-50
2022/07/26 05:26:44;;;;;;;3.90;3.03;;;19.90;95.10;;;;;;5015797;28;20183;-55
2022/07/26 05:29:10;;;;;;;4.87;3.30;;;19.90;95.20;;;;;;5015121;28;20194;-56
2022/07/26 05:31:36;;;;;;;3.40;2.90;;;19.80;95.40;;;;;;5014854;28;20225;-54
2022/07/26 05:34:02;;;;;;;3.20;2.90;;;19.70;95.60;;;;;;5015493;28;20195;-54
2022/07/26 05:36:28;;;;;;;3.63;3.33;;;19.80;95.80;;;;;;5016399;28;20202;-54
2022/07/26 05:38:54;;;;;;;3.90;3.60;;;19.80;95.70;;;;;;5016745;28;20532;-54
2022/07/26 05:41:20;;;;;;;3.33;2.73;;;19.80;95.70;;;;;;5013855;28;20690;-55
2022/07/26 05:43:45;;;;;;;4.27;3.33;;;19.80;95.70;;;;;;5012707;28;20353;-51
2022/07/26 05:46:11;;;;;;;4.50;3.57;;;20.00;95.60;;;;;;5012130;28;20525;-54
2022/07/26 05:48:38;;;;;;;3.60;3.30;;;20.00;95.40;;;;;;5011079;28;20229;-53
2022/07/26 05:51:04;;;;;;;6.67;3.60;;;19.90;95.60;;;;;;5010051;28;20563;-54
2022/07/26 05:53:29;;;;;;;3.47;2.70;;;20.00;95.60;;;;;;5012168;28;20910;-52
2022/07/26 05:55:55;;;;;;;4.53;3.53;;;20.30;95.30;;;;;;5011491;28;20185;-51
2022/07/26 05:58:21;;;;;;;3.63;3.33;;;20.50;94.40;;;;;;5013924;28;20505;-53
2022/07/26 06:00:46;;;;;;;4.60;4.10;;;20.60;94.50;;;;;;5012678;28;20387;-51
2022/07/26 06:03:21;;;;;;;3.93;3.63;;;20.80;93.90;;;;;;5011859;28;20177;-52
2022/07/26 06:05:48;;;;;;;5.10;3.53;;;21.10;93.60;;;;;;4993312;28;20541;-56
2022/07/26 06:08:13;;;;;;;3.77;3.47;;;21.40;93.10;;;;;;5008657;28;20637;-53
2022/07/26 06:10:39;;;;;;;3.93;3.30;;;21.60;92.40;;;;;;5006779;28;20992;-51
2022/07/26 06:13:05;;;;;;;4.77;3.27;;;21.70;92.00;;;;;;5009272;28;20519;-55
2022/07/26 06:15:30;;;;;;;7.57;3.33;;;21.70;91.90;;;;;;5009734;28;20193;-55
2022/07/26 06:17:56;;;;;;;6.07;3.40;;;21.70;91.70;;;;;;5007812;28;20196;-57
2022/07/26 06:20:22;;;;;;;5.20;3.43;;;21.60;90.90;;;;;;5011433;28;20357;-55
2022/07/26 06:22:47;;;;;;;4.63;3.00;;;21.70;91.00;;;;;;5009543;28;20189;-54
2022/07/26 06:25:13;;;;;;;3.50;2.83;;;21.90;90.90;;;;;;5012851;28;20184;-52
2022/07/26 06:27:39;;;;;;;3.03;2.73;;;22.20;90.10;;;;;;5010018;28;20252;-54
2022/07/26 06:30:06;;;;;;;4.70;2.50;;;22.60;89.00;;;;;;5012421;28;20190;-50
2022/07/26 06:32:32;;;;;;;4.60;2.40;;;22.80;84.30;;;;;;5012927;28;20392;-55
2022/07/26 06:34:57;;;;;;;2.63;2.43;;;22.80;82.60;;;;;;5012103;28;20517;-55
2022/07/26 06:37:23;;;;;;;3.00;2.00;;;22.90;82.60;;;;;;5012698;28;20224;-56
2022/07/26 06:39:49;;;;;;;4.20;2.73;;;23.00;82.60;;;;;;5012897;28;20179;-54
2022/07/26 06:42:14;;;;;;;3.20;2.13;;;23.20;80.20;;;;;;5012441;28;20220;-55
2022/07/26 06:44:40;;;;;;;5.20;2.40;;;23.20;79.90;;;;;;5012962;28;20466;-55
2022/07/26 06:47:06;;;;;;;2.40;1.67;;;23.20;78.20;;;;;;5013996;28;20613;-56
2022/07/26 06:49:31;;;;;;;2.63;2.20;;;23.20;76.70;;;;;;5012966;28;20447;-52
2022/07/26 06:51:57;;;;;;;3.00;2.00;;;23.00;78.00;;;;;;5011821;28;20590;-56
2022/07/26 06:54:23;;;;;;;3.13;2.03;;;23.20;77.80;;;;;;5011442;28;20199;-54
2022/07/26 06:56:49;;;;;;;4.40;2.07;;;23.30;75.60;;;;;;5011646;28;20185;-52
2022/07/26 06:59:14;;;;;;;2.90;1.77;;;23.40;75.30;;;;;;4996329;28;20186;-54
2022/07/26 07:01:41;;;;;;;2.50;1.63;;;23.60;74.90;;;;;;5012202;28;20445;-56
2022/07/26 07:04:06;;;;;;;3.50;1.80;;;23.50;71.80;;;;;;5014991;28;20170;-56
2022/07/26 07:06:32;;;;;;;4.17;2.23;;;23.50;72.40;;;;;;5014061;28;20569;-55
2022/07/26 07:08:58;;;;;;;2.87;1.70;;;23.70;71.00;;;;;;5011220;28;20302;-57
2022/07/26 07:11:24;;;;;;;2.77;1.83;;;24.00;72.70;;;;;;5012638;28;21008;-53
2022/07/26 07:13:49;;;;;;;3.03;1.67;;;23.50;67.70;;;;;;5012388;28;20259;-55
2022/07/26 07:16:15;;;;;;;3.23;1.60;;;23.60;68.90;;;;;;5012013;28;20568;-54
2022/07/26 07:18:41;;;;;;;3.90;2.07;;;23.70;68.80;;;;;;5012252;28;20491;-56
2022/07/26 07:21:06;;;;;;;7.40;1.97;;;23.80;66.60;;;;;;5012499;28;20209;-55
2022/07/26 07:23:35;;;;;;;3.20;1.40;;;23.90;67.30;;;;;;5014608;28;20179;-53
2022/07/26 07:26:00;;;;;;;4.97;2.17;;;24.10;65.40;;;;;;5011538;28;20198;-56
2022/07/26 07:28:26;;;;;;;2.30;1.60;;;24.20;66.20;;;;;;5012484;28;20469;-56
2022/07/26 07:30:52;;;;;;;2.50;1.80;;;24.30;63.30;;;;;;5010556;28;20245;-53
2022/07/26 07:33:17;;;;;;;2.90;1.53;;;24.00;63.50;;;;;;5013157;28;20557;-56
2022/07/26 07:35:43;;;;;;;3.40;1.90;;;24.00;63.90;;;;;;5012187;28;20194;-57
2022/07/26 07:38:09;;;;;;;4.50;2.00;;;23.90;63.10;;;;;;5014131;28;20300;-55
2022/07/26 07:40:35;;;;;;;2.33;1.77;;;24.10;63.40;;;;;;5014212;28;20422;-57
2022/07/26 07:43:01;;;;;;;5.30;1.70;;;24.50;64.10;;;;;;5013319;28;20210;-58
2022/07/26 07:45:26;;;;;;;1.80;1.70;;;24.90;62.50;;;;;;5011776;28;20832;-59
2022/07/26 07:47:52;;;;;;;1.87;1.37;;;25.20;61.10;;;;;;5014113;28;20211;-54
2022/07/26 07:50:19;;;;;;;1.80;1.10;;;25.10;58.80;;;;;;5014293;28;20188;-58
2022/07/26 07:52:47;;;;;;;3.00;1.60;;;24.80;58.70;;;;;;5015910;28;20179;-59
2022/07/26 07:55:13;;;;;;;2.53;1.57;;;24.80;59.10;;;;;;5020442;28;20425;-58
2022/07/26 07:57:39;;;;;;;4.10;1.67;;;24.90;59.40;;;;;;5019524;28;20902;-57
2022/07/26 08:00:06;;;;;;;2.70;1.33;;;25.20;58.80;;;;;;5021007;28;20274;-57
2022/07/26 08:02:32;;;;;;;4.23;1.60;;;25.50;57.40;;;;;;5018731;28;20197;-59
2022/07/26 08:04:57;;;;;;;2.60;1.30;;;25.60;56.70;;;;;;5020110;28;20440;-55
2022/07/26 08:07:23;;;;;;;4.70;1.53;;;25.80;56.90;;;;;;5020280;28;20221;-56
2022/07/26 08:09:49;;;;;;;3.83;1.50;;;26.10;56.00;;;;;;5019237;28;20186;-57
2022/07/26 08:12:16;;;;;;;2.90;1.67;;;26.10;55.40;;;;;;5020343;28;20179;-57
2022/07/26 08:14:41;;;;;;;1.67;1.33;;;26.00;54.40;;;;;;5019075;28;20480;-54
2022/07/26 08:17:07;;;;;;;2.27;1.43;;;25.70;54.20;;;;;;5019920;28;20428;-57
2022/07/26 08:19:33;;;;;;;4.37;2.00;;;25.60;54.40;;;;;;5022422;28;20276;-56
2022/07/26 08:21:59;;;;;;;5.83;2.03;;;25.50;54.40;;;;;;5020101;28;20844;-55
2022/07/26 08:24:24;;;;;;;3.17;1.67;;;25.80;54.30;;;;;;5018091;28;20381;-58
2022/07/26 08:26:52;;;;;;;2.23;1.50;;;26.20;54.20;;;;;;5016547;28;20185;-58
2022/07/26 08:29:18;;;;;;;3.23;1.53;;;26.40;53.20;;;;;;5016518;28;20502;-55
2022/07/26 08:31:44;;;;;;;2.90;1.57;;;25.90;52.70;;;;;;5018199;28;20614;-59
2022/07/26 08:34:09;;;;;;;5.73;1.50;;;25.60;53.60;;;;;;5018049;28;20187;-55
2022/07/26 08:36:35;;;;;;;3.03;2.13;;;25.30;53.90;;;;;;5019222;28;20416;-56
2022/07/26 08:39:01;;;;;;;2.20;1.70;;;25.10;54.10;;;;;;5022430;28;20217;-54
2022/07/26 08:41:28;;;;;;;4.93;1.80;;;25.10;54.40;;;;;;5023298;28;20211;-57
2022/07/26 08:43:53;;;;;;;3.00;1.80;;;25.40;54.20;;;;;;5022224;28;20430;-58
2022/07/26 08:46:23;;;;;;;2.80;1.60;;;25.40;53.10;;;;;;5020484;28;20638;-56
2022/07/26 08:48:49;;;;;;;3.77;2.07;;;25.70;53.20;;;;;;5020785;28;20269;-57
2022/07/26 08:51:16;;;;;;;2.73;1.70;;;25.90;53.00;;;;;;5019402;28;20441;-59
2022/07/26 08:53:42;;;;;;;3.67;2.00;;;25.80;53.00;;;;;;5018143;28;20178;-55
2022/07/26 08:56:07;;;;;;;2.47;1.73;;;25.80;52.80;;;;;;5017045;28;20443;-54
2022/07/26 08:58:35;;;;;;;1.90;1.63;;;25.70;52.80;;;;;;5018184;28;20390;-58
2022/07/26 09:01:08;;;;;;;3.97;1.80;;;25.70;52.40;;;;;;5018231;28;20195;-53
2022/07/26 09:03:36;;;;;;;3.17;1.40;;;26.00;52.90;;;;;;5017841;28;20961;-54
2022/07/26 09:06:20;;;;;;;3.07;1.40;;;26.40;51.90;;;;;;5012686;28;20736;-54
2022/07/26 09:08:48;;;;;;;2.43;1.60;;;26.60;51.70;;;;;;5015731;28;20489;-54
2022/07/26 09:11:25;;;;;;;3.10;1.70;;;26.90;51.30;;;;;;5017287;28;20491;-56
2022/07/26 09:13:56;;;;;;;2.10;1.57;;;27.00;50.40;;;;;;5017664;28;20518;-59
2022/07/26 09:16:22;;;;;;;4.27;1.83;;;26.50;50.50;;;;;;5017213;28;20425;-55
2022/07/26 09:18:48;;;;;;;3.30;1.67;;;26.40;50.20;;;;;;5016038;28;20458;-57
2022/07/26 09:21:35;;;;;;;2.17;1.40;;;26.30;50.30;;;;;;5013459;28;20886;-58
2022/07/26 09:24:00;;;;;;;3.10;1.50;;;25.90;50.30;;;;;;5013354;28;20188;-56
2022/07/26 09:26:27;;;;;;;2.30;1.30;;;26.00;50.80;;;;;;5014096;28;20439;-57
2022/07/26 09:29:10;;;;;;;3.07;1.53;;;26.50;50.20;;;;;;5013310;28;20372;-55
2022/07/26 09:31:37;;;;;;;2.07;1.53;;;27.10;49.50;;;;;;5012326;28;20710;-56
2022/07/26 09:34:03;;;;;;;2.00;1.30;;;27.40;47.80;;;;;;5014180;28;20422;-59
2022/07/26 09:36:30;;;;;;;2.90;1.53;;;27.30;47.90;;;;;;5013090;28;20810;-57
2022/07/26 09:38:59;;;;;;;3.03;1.80;;;26.60;48.30;;;;;;5015821;28;20418;-59
2022/07/26 09:41:28;;;;;;;1.83;1.20;;;26.80;49.30;;;;;;5016267;28;20415;-57
2022/07/26 09:43:57;;;;;;;3.23;1.43;;;27.40;48.40;;;;;;5013123;28;20452;-54
2022/07/26 09:46:26;;;;;;;3.03;1.60;;;27.40;47.60;;;;;;5011103;28;20428;-56
2022/07/26 09:48:54;;;;;;;2.00;1.57;;;27.30;47.40;;;;;;5024994;28;20479;-58
2022/07/26 09:51:40;;;;;;;2.90;1.70;;;26.90;47.50;;;;;;5028927;28;20701;-57
2022/07/26 09:54:07;;;;;;;3.63;1.40;;;27.10;48.20;;;;;;5014084;28;20870;-55
2022/07/26 09:56:49;;;;;;;2.33;1.50;;;27.60;47.40;;;;;;5013939;28;20704;-59
2022/07/26 09:59:17;;;;;;;2.63;1.90;;;27.80;46.50;;;;;;5014962;28;20485;-58
2022/07/26 10:01:43;;;;;;;3.30;1.60;;;27.60;46.00;;;;;;5015147;28;20448;-58
2022/07/26 10:04:10;;;;;;;1.80;1.47;;;26.70;46.20;;;;;;5012798;28;20422;-58
2022/07/26 10:06:35;;;;;;;2.27;1.50;;;26.30;47.00;;;;;;5013347;28;20430;-59
2022/07/26 10:09:02;;;;;;;3.00;1.40;;;26.30;47.80;;;;;;5015236;28;20478;-56
2022/07/26 10:11:50;;;;;;;3.27;1.83;;;26.40;47.50;;;;;;5015987;28;20214;-55
2022/07/26 10:14:35;;;;;;;5.73;1.87;;;26.70;47.70;;;;;;5015299;28;20918;-57
2022/07/26 10:17:32;;;;;;;4.37;1.77;;;26.80;46.60;;;;;;5016525;28;20422;-57
2022/07/26 10:20:03;;;;;;;2.07;1.33;;;26.90;47.10;;;;;;5016912;28;20410;-60
2022/07/26 10:22:30;;;;;;;2.37;1.50;;;26.70;47.40;;;;;;5014796;28;20464;-57
2022/07/26 10:25:16;;;;;;;2.17;1.50;;;26.70;47.50;;;;;;5015432;28;20437;-59
2022/07/26 10:27:53;;;;;;;2.70;1.60;;;27.10;47.60;;;;;;4994401;28;20477;-58
2022/07/26 10:30:19;;;;;;;2.50;1.37;;;27.60;47.20;;;;;;5015731;28;20425;-58
2022/07/26 10:32:50;;;;;;;3.50;1.50;;;27.90;46.50;;;;;;5015188;28;20457;-57
2022/07/26 10:35:33;;;;;;;3.03;1.20;;;28.10;46.10;;;;;;5015329;28;20176;-58
2022/07/26 10:38:04;;;;;;;2.40;1.33;;;28.60;45.40;;;;;;5012389;28;20449;-56
2022/07/26 10:40:31;;;;;;;1.77;1.37;;;28.90;44.40;;;;;;5013889;28;20422;-58
2022/07/26 10:43:10;;;;;;;3.00;1.43;;;29.20;44.50;;;;;;5015245;28;20423;-59
2022/07/26 10:45:37;;;;;;;2.57;1.60;;;29.20;44.10;;;;;;5015023;28;20558;-58
2022/07/26 10:48:13;;;;;;;2.10;1.70;;;29.10;44.00;;;;;;5015377;28;20524;-60
2022/07/26 10:50:41;;;;;;;2.97;1.30;;;29.00;43.80;;;;;;5013640;28;20495;-59
2022/07/26 10:53:09;;;;;;;5.00;1.90;;;28.10;43.90;;;;;;5015569;28;20429;-59
2022/07/26 10:55:52;;;;;;;2.60;1.43;;;27.20;44.90;;;;;;5014888;28;20514;-59
2022/07/26 10:58:19;;;;;;;3.70;1.37;;;26.90;45.70;;;;;;5014817;28;21088;-59
2022/07/26 11:01:00;;;;;;;3.80;1.83;;;27.00;46.00;;;;;;5015470;28;20701;-58
2022/07/26 11:03:40;;;;;;;5.50;2.00;;;27.70;45.60;;;;;;5014634;28;20527;-58
2022/07/26 11:06:16;;;;;;;2.83;1.50;;;28.70;45.90;;;;;;5014870;28;20397;-58
2022/07/26 11:08:44;;;;;;;34.13;6.87;;;29.30;43.20;;;;;;5013996;28;20514;-58
2022/07/26 11:11:09;;;;;;;12.67;2.57;;;29.90;43.20;;;;;;5013618;28;20407;-59
2022/07/26 11:13:36;;;;;;;3.53;1.53;;;30.50;42.60;;;;;;5014151;28;20436;-58
2022/07/26 11:16:05;;;;;;;1.60;1.30;;;30.40;41.90;;;;;;5013933;28;20187;-59
2022/07/26 11:18:36;;;;;;;2.63;2.10;;;30.10;41.90;;;;;;5012640;28;20416;-59
2022/07/26 11:21:12;;;;;;;4.50;1.70;;;30.20;41.70;;;;;;5010312;28;20778;-57
2022/07/26 11:23:42;;;;;;;5.00;1.53;;;29.50;42.00;;;;;;5014091;28;20465;-58
2022/07/26 11:26:19;;;;;;;7.30;2.00;;;30.00;41.30;;;;;;5011634;28;20405;-59
2022/07/26 11:28:46;;;;;;;1.97;1.20;;;30.30;41.30;;;;;;5009307;28;20508;-58
2022/07/26 11:31:12;;;;;;;2.63;1.30;;;30.70;40.80;;;;;;5011739;28;20907;-58
2022/07/26 11:33:39;;;;;;;3.30;1.33;;;30.20;41.60;;;;;;5012341;28;20388;-57
2022/07/26 11:36:05;;;;;;;3.27;1.57;;;30.70;41.10;;;;;;5012643;28;20514;-59
2022/07/26 11:38:51;;;;;;;2.87;1.33;;;31.00;40.70;;;;;;5014298;28;20540;-58
2022/07/26 11:41:20;;;;;;;3.60;1.70;;;31.40;40.10;;;;;;5013676;28;20433;-57
2022/07/26 11:43:47;;;;;;;2.77;1.27;;;31.70;39.80;;;;;;5014384;28;20852;-58
2022/07/26 11:46:13;;;;;;;1.90;1.20;;;30.80;39.40;;;;;;5013689;28;20432;-58
2022/07/26 11:48:45;;;;;;;4.53;1.77;;;30.70;39.80;;;;;;5014560;28;20460;-57
2022/07/26 11:51:12;;;;;;;2.97;1.70;;;29.70;40.00;;;;;;5015231;28;20482;-59
2022/07/26 11:53:37;;;;;;;8.90;2.60;;;29.10;40.90;;;;;;5014361;28;20419;-58
2022/07/26 11:56:16;;;;;;;2.27;1.30;;;28.90;42.40;;;;;;5014552;28;20414;-59
2022/07/26 11:58:44;;;;;;;2.17;1.60;;;29.00;42.00;;;;;;5012521;28;20850;-57
2022/07/26 12:01:12;;;;;;;5.43;1.73;;;29.60;41.30;;;;;;5012890;28;20481;-57
2022/07/26 12:03:40;;;;;;;2.13;1.20;;;30.20;41.20;;;;;;5012173;28;20408;-59
2022/07/26 12:06:12;;;;;;;4.03;1.37;;;30.90;39.80;;;;;;5012152;28;20823;-62
2022/07/26 12:08:58;;;;;;;3.77;1.60;;;30.50;38.90;;;;;;5014370;28;20627;-58
2022/07/26 12:11:36;;;;;;;1.77;1.30;;;30.20;39.50;;;;;;5004858;28;20823;-55
2022/07/26 12:14:02;;;;;;;1.60;1.20;;;30.50;39.00;;;;;;5012791;28;20423;-54
2022/07/26 12:16:36;;;;;;;2.13;1.37;;;30.20;39.70;;;;;;5014654;28;20438;-58
2022/07/26 12:19:04;;;;;;;3.80;2.43;;;29.80;38.90;;;;;;4997609;28;20405;-56
2022/07/26 12:21:46;;;;;;;89.27;14.00;;;29.90;40.20;;;;;;5002030;28;20452;-59
2022/07/26 12:24:33;;;;;;;2.90;1.70;;;30.60;39.90;;;;;;5007205;28;20428;-58
2022/07/26 12:27:18;;;;;;;2.37;1.27;;;31.40;38.60;;;;;;5006981;28;20436;-58
2022/07/26 12:29:52;;;;;;;3.30;1.60;;;32.10;37.80;;;;;;5000639;28;20554;-59
2022/07/26 12:32:22;;;;;;;3.17;1.60;;;32.20;38.20;;;;;;4993527;28;20471;-59
2022/07/26 12:35:02;;;;;;;2.47;1.17;;;32.50;37.70;;;;;;4994597;28;20391;-58
2022/07/26 12:37:30;;;;;;;1.83;1.30;;;33.10;37.00;;;;;;4993874;28;20402;-57
2022/07/26 12:40:12;;;;;;;1.60;1.10;;;32.60;36.10;;;;;;4995129;28;20434;-58
2022/07/26 12:42:40;;;;;;;2.37;1.27;;;32.60;36.50;;;;;;4998462;28;20400;-57
2022/07/26 12:45:08;;;;;;;1.53;1.20;;;32.20;36.40;;;;;;4994899;28;20559;-58
2022/07/26 12:47:41;;;;;;;1.90;1.10;;;32.10;36.50;;;;;;4994942;28;20444;-56
2022/07/26 12:50:09;;;;;;;3.10;1.60;;;32.10;36.30;;;;;;4995119;28;20397;-53
2022/07/26 12:52:35;;;;;;;3.20;1.70;;;32.00;36.70;;;;;;4996371;28;20399;-56